Katalog artikala AutoNuic

Ukupno 36 aktivnih artikala (03.12.2021)
OLX ID SLIKA NAZIV CIJENA DATUM OBJAVE
44495610 Toyota C-HR 2,0 HSD E-CVT Toyota C-HR 2,0 HSD E-CVT 60.000 KM 03.12.2021
45132716 Volvo V40 D2 Kinetic Volvo V40 D2 Kinetic 24.900 KM 03.12.2021
38559340 Toyota C-HR 1.8 HSD E-CVT C-HIC    *DEMO vozilo* Toyota C-HR 1.8 HSD E-CVT C-HIC *DEMO vozilo* 49.000 KM 03.12.2021
35120164 TOYOTA CAMRY 2.5 HYBRID SD E-CVT EXECUTIVE DEMO vozilo TOYOTA CAMRY 2.5 HYBRID SD E-CVT EXECUTIVE DEMO vozilo 69.900 KM 03.12.2021
41003414 VOLVO XC40 T5 A RECHARGE R-DESIGN VOLVO XC40 T5 A RECHARGE R-DESIGN 119.496 KM 96.500 KM 03.12.2021
42968128 Volvo XC40 T3 A R-Design *AKCIJSKA PONUDA* Volvo XC40 T3 A R-Design *AKCIJSKA PONUDA* 76.258 KM 03.12.2021
15651196 Toyota Avensis 2,0 D-4D Luna WG Toyota Avensis 2,0 D-4D Luna WG 21.500 KM 03.12.2021
42840862 Volvo XC90 B5 AWD A Momentum Pro *AKCIJSKA PONUDA* Volvo XC90 B5 AWD A Momentum Pro *AKCIJSKA PONUDA* 113.419 KM 03.12.2021
40026723 Toyota LC V8 Luxury Toyota LC V8 Luxury 59.000 KM 03.12.2021
42785264 Volvo XC60 B4(D) AWD A Mom. Pro MY22 *AKCIJSKA PONUDA* Volvo XC60 B4(D) AWD A Mom. Pro MY22 *AKCIJSKA PONUDA* 91.905 KM 03.12.2021
42785512 VOLVO XC60 B4 (P) A Mom. Pro MY22 *AKCIJSKA PONUDA* VOLVO XC60 B4 (P) A Mom. Pro MY22 *AKCIJSKA PONUDA* 82.125 KM 03.12.2021
41953396 VW GOLF VII GTI 2016. VW GOLF VII GTI 2016. 34.500 KM 03.12.2021
42879711 Volvo XC40 T2 Momentum *AKCIJSKA PONUDA* Volvo XC40 T2 Momentum *AKCIJSKA PONUDA* 56.700 KM 03.12.2021
43940812 Opel INSIGNIA OPC Line Cosmo 2.0 CDTI BiTurbo AWD Opel INSIGNIA OPC Line Cosmo 2.0 CDTI BiTurbo AWD 24.900 KM 03.12.2021
42981419 Volvo S90 B4P A Momentum Pro  *AKCIJSKA PONUDA* Volvo S90 B4P A Momentum Pro *AKCIJSKA PONUDA* 84.080 KM 03.12.2021
44652179 VW Golf 7 1,2 TSI VW Golf 7 1,2 TSI 18.500 KM 02.12.2021
41060478 AUDI A1 1.6 TDI S-line AUDI A1 1.6 TDI S-line 19.900 KM 02.12.2021
44832884 Toyota Hilux Invincible 2.8 D-4D Toyota Hilux Invincible 2.8 D-4D 91.050 KM 02.12.2021
41060127 TOYOTA LAND CRUISER PREMIUM Automatik 7 sjedišta TOYOTA LAND CRUISER PREMIUM Automatik 7 sjedišta 125.000 KM 02.12.2021
44814262 Toyota RAV4 2.5 HSD AWD-i E-CVT Elegant Toyota RAV4 2.5 HSD AWD-i E-CVT Elegant 77.450 KM 01.12.2021
44814504 Toyota Corolla HB 1,2T Luna Toyota Corolla HB 1,2T Luna 34.990 KM 01.12.2021
44550820 Volvo XC60 D4 AWD Momentum Volvo XC60 D4 AWD Momentum 30.500 KM 01.12.2021
45096279 Toyota Yaris Cross 1.5 VVT-i Elegant Toyota Yaris Cross 1.5 VVT-i Elegant 43.380 KM 01.12.2021
45390802 Volvo V90 Cross Country B5(D) AWD A PRO Volvo V90 Cross Country B5(D) AWD A PRO 114.900 KM 30.11.2021
45699244 Volvo XC60 D4 AWD A Momentum Plus Volvo XC60 D4 AWD A Momentum Plus 72.900 KM 30.11.2021
45574475 Renault Clio 0,9 TCe Renault Clio 0,9 TCe 20.200 KM 29.11.2021
45145971 Toyota C-HR 1,8 HSD E-CVT Toyota C-HR 1,8 HSD E-CVT 48.000 KM 29.11.2021
45054117 Suzuki Vitara 1,4 Suzuki Vitara 1,4 28.500 KM 29.11.2021
44505571 Toyota C-HR 1,8 HSD E-CVT Toyota C-HR 1,8 HSD E-CVT 48.000 KM 29.11.2021
45076805 Toyota Avensis 2,0 D-4D Toyota Avensis 2,0 D-4D 9.900 KM 29.11.2021
45145968 Toyota Highlander Executive 2,5 HSD AWD Toyota Highlander Executive 2,5 HSD AWD 111.510 KM 29.11.2021
44814098 Toyota RAV4 2,5 HSD 4x2 E-CVT Elegant Tech Toyota RAV4 2,5 HSD 4x2 E-CVT Elegant Tech 74.980 KM 29.11.2021
45571730 Renault Espace 1.6 DCi Initiale Paris 7 sjedišta Renault Espace 1.6 DCi Initiale Paris 7 sjedišta 42.900 KM 29.11.2021
45571325 VOLVO V40 D2 A Momentum VOLVO V40 D2 A Momentum 23.500 KM 29.11.2021
44861956 Volvo S60 T4 A R-Design Volvo S60 T4 A R-Design 73.000 KM 29.11.2021
45645051 Volvo XC90 B5 AWD A Inscription Volvo XC90 B5 AWD A Inscription 132.402 KM 27.11.2021